createdAt,value
2017-12-26T00:04:09.566Z,97.4
2017-12-26T00:09:09.430Z,97.5
2017-12-26T00:14:09.593Z,97.8
2017-12-26T00:19:09.489Z,97.7
2017-12-26T00:24:09.505Z,96.6
2017-12-26T00:29:09.604Z,96.5
2017-12-26T00:34:09.391Z,97.3
2017-12-26T00:39:09.383Z,97.4
2017-12-26T00:44:09.539Z,96.9
2017-12-26T00:49:09.606Z,96.8
2017-12-26T00:54:09.607Z,96.4
2017-12-26T00:59:09.376Z,96.2
2017-12-26T01:04:09.478Z,95.7
2017-12-26T01:09:09.426Z,95.8
2017-12-26T01:14:09.446Z,95.6
2017-12-26T01:19:09.412Z,95.5
2017-12-26T01:24:09.570Z,95.4
2017-12-26T01:29:09.518Z,95
2017-12-26T01:34:09.554Z,95.4
2017-12-26T01:39:09.411Z,95.3
2017-12-26T01:44:09.413Z,95.2
2017-12-26T01:49:09.524Z,94.5
2017-12-26T01:54:09.558Z,95.5
2017-12-26T01:59:09.590Z,95.1
2017-12-26T02:04:09.449Z,94.2
2017-12-26T02:09:09.433Z,95.1
2017-12-26T02:14:09.598Z,94.3
2017-12-26T02:19:09.635Z,95.2
2017-12-26T02:24:09.533Z,95.4
2017-12-26T02:29:09.438Z,95.3
2017-12-26T02:34:09.596Z,95.4
2017-12-26T02:39:09.634Z,95.9
2017-12-26T02:44:09.453Z,95.4
2017-12-26T02:49:09.581Z,95.9
2017-12-26T02:54:09.611Z,96.1
2017-12-26T02:59:09.445Z,96.1
2017-12-26T03:04:09.568Z,96.5
2017-12-26T03:09:09.443Z,95.3
2017-12-26T03:14:09.457Z,95.1
2017-12-26T03:19:09.545Z,96.1
2017-12-26T03:24:09.461Z,96.5
2017-12-26T03:29:09.456Z,95.6
2017-12-26T03:34:09.656Z,95.7
2017-12-26T03:39:09.544Z,96.4
2017-12-26T03:44:09.625Z,95.8
2017-12-26T03:49:09.553Z,96.7
2017-12-26T03:54:09.474Z,96.9
2017-12-26T03:59:09.581Z,97
2017-12-26T04:04:09.666Z,96.6
2017-12-26T04:09:09.648Z,96.9
2017-12-26T04:14:09.485Z,95.9
2017-12-26T04:19:09.613Z,96
2017-12-26T04:24:09.651Z,95.7
2017-12-26T04:29:09.675Z,96.5
2017-12-26T04:34:09.504Z,96.8
2017-12-26T04:39:09.636Z,96.6
2017-12-26T04:44:09.528Z,96.2
2017-12-26T04:49:09.498Z,95.8
2017-12-26T04:54:09.496Z,96.1
2017-12-26T04:59:09.492Z,96.4
2017-12-26T05:04:09.501Z,95.6
2017-12-26T05:09:09.517Z,95.1
2017-12-26T05:14:09.541Z,95.2
2017-12-26T05:19:09.520Z,96.3
2017-12-26T05:24:09.534Z,96
2017-12-26T05:29:09.530Z,96.4
2017-12-26T05:34:09.863Z,96.1
2017-12-26T05:39:09.689Z,95.2
2017-12-26T05:44:09.520Z,95.3
2017-12-26T05:49:09.559Z,95.6
2017-12-26T05:54:09.673Z,95
2017-12-26T05:59:09.722Z,95.4
2017-12-26T06:04:09.611Z,94.9
2017-12-26T06:09:09.665Z,94.5
2017-12-26T06:14:09.697Z,93.7
2017-12-26T06:19:09.778Z,93.7
2017-12-26T06:24:09.637Z,94
2017-12-26T06:29:09.550Z,94.7
2017-12-26T06:34:09.719Z,95.5
2017-12-26T06:39:09.594Z,95
2017-12-26T06:44:09.669Z,95.3
2017-12-26T06:49:09.715Z,94.5
2017-12-26T06:54:09.761Z,94.5
2017-12-26T06:59:09.586Z,94.4
2017-12-26T07:04:09.701Z,94.1
2017-12-26T07:09:09.589Z,94.1
2017-12-26T07:14:09.610Z,94.3
2017-12-26T07:19:09.709Z,95.2
2017-12-26T07:24:09.596Z,95.3
2017-12-26T07:29:09.754Z,95.2
2017-12-26T07:34:09.789Z,96.1
2017-12-26T07:39:09.661Z,97.2
2017-12-26T07:44:09.739Z,97.1
2017-12-26T07:49:09.610Z,96.9
2017-12-26T07:54:09.678Z,96.5
2017-12-26T07:59:09.606Z,96
2017-12-26T08:04:09.649Z,95.9
2017-12-26T08:09:09.650Z,94.7
2017-12-26T08:14:09.600Z,95.9
2017-12-26T08:19:09.620Z,95.9
2017-12-26T08:24:09.633Z,94.6
2017-12-26T08:29:09.684Z,94.8
2017-12-26T08:34:09.621Z,93.9
2017-12-26T08:39:15.577Z,94.3
2017-12-26T08:44:16.241Z,94.3
2017-12-26T08:49:21.322Z,94.3
2017-12-26T08:54:21.408Z,94.6
2017-12-26T08:59:14.390Z,94.3
2017-12-26T09:09:17.941Z,96
2017-12-26T09:14:10.230Z,94.5
2017-12-26T09:24:14.322Z,94.6
2017-12-26T09:29:26.041Z,94.6
2017-12-26T09:34:10.248Z,94.8
2017-12-26T09:39:10.173Z,94.9
2017-12-26T09:44:26.832Z,94.1
2017-12-26T09:49:10.525Z,93.6
2017-12-26T09:54:28.493Z,93.8
2017-12-26T09:59:10.331Z,93.7
2017-12-26T10:04:10.443Z,93.6
2017-12-26T10:09:10.244Z,94.5
2017-12-26T10:14:10.183Z,93.9
2017-12-26T10:19:10.221Z,95.3
2017-12-26T10:24:10.234Z,95.6
2017-12-26T10:29:10.345Z,96.1
2017-12-26T10:34:10.375Z,95
2017-12-26T10:39:10.204Z,94.7
2017-12-26T10:44:10.312Z,94.8
2017-12-26T10:49:10.373Z,93.7
2017-12-26T10:54:10.214Z,94.3
2017-12-26T10:59:10.433Z,93.8
2017-12-26T11:04:10.238Z,93.5
2017-12-26T11:09:10.229Z,93.9
2017-12-26T11:14:10.299Z,92.8
2017-12-26T11:19:20.277Z,92.7
2017-12-26T11:24:10.248Z,92.3
2017-12-26T11:29:10.273Z,92.2
2017-12-26T11:34:10.338Z,92.7
2017-12-26T11:39:10.360Z,93.7
2017-12-26T11:44:10.381Z,93.7
2017-12-26T11:49:10.413Z,93.1
2017-12-26T11:54:10.334Z,93.4
2017-12-26T11:59:10.236Z,93.1
2017-12-26T12:04:10.246Z,92.9
2017-12-26T12:09:10.311Z,93.5
2017-12-26T12:14:10.367Z,93.6
2017-12-26T12:19:10.405Z,93.8
2017-12-26T12:24:10.465Z,93.8
2017-12-26T12:29:10.286Z,93.4
2017-12-26T12:34:10.284Z,92.2
2017-12-26T12:39:10.248Z,93.2
2017-12-26T12:44:10.451Z,92.2
2017-12-26T12:49:10.364Z,92.5
2017-12-26T12:54:10.402Z,92.4
2017-12-26T12:59:10.366Z,93.1
2017-12-26T13:04:10.489Z,93.3
2017-12-26T13:09:10.384Z,92.8
2017-12-26T13:14:20.249Z,92.8
2017-12-26T13:19:10.290Z,93.5
2017-12-26T13:24:10.285Z,93.3
2017-12-26T13:29:10.402Z,93
2017-12-26T13:34:10.272Z,93.5
2017-12-26T13:39:10.454Z,93.1
2017-12-26T13:44:10.383Z,93.4
2017-12-26T13:49:10.291Z,93.5
2017-12-26T13:54:10.458Z,94
2017-12-26T13:59:10.371Z,94.2
2017-12-26T14:04:10.399Z,94.3
2017-12-26T14:09:10.433Z,94.4
2017-12-26T14:14:10.911Z,94.2
2017-12-26T14:19:10.366Z,94.9
2017-12-26T14:24:10.422Z,94.8
2017-12-26T14:29:10.288Z,94.2
2017-12-26T14:34:10.319Z,94.3
2017-12-26T14:39:10.552Z,94.5
2017-12-26T14:44:10.444Z,94.7
2017-12-26T14:49:10.487Z,95.3
2017-12-26T14:54:10.521Z,95.5
2017-12-26T14:59:10.320Z,95.4
2017-12-26T15:04:10.464Z,95.3
2017-12-26T15:09:10.338Z,96
2017-12-26T15:14:10.406Z,95.4
2017-12-26T15:19:10.441Z,95.7
2017-12-26T15:24:10.520Z,95.7
2017-12-26T15:29:10.372Z,95.7
2017-12-26T15:34:10.424Z,95.9
2017-12-26T15:39:10.505Z,96
2017-12-26T15:44:10.517Z,95.7
2017-12-26T15:49:10.445Z,97
2017-12-26T15:54:10.564Z,98
2017-12-26T15:59:10.466Z,97.6
2017-12-26T16:04:10.509Z,98.5
2017-12-26T16:09:10.441Z,98.5
2017-12-26T16:14:10.471Z,97.9
2017-12-26T16:19:10.537Z,98.3
2017-12-26T16:24:10.536Z,98
2017-12-26T16:29:10.470Z,97.7
2017-12-26T16:34:10.489Z,97.5
2017-12-26T16:39:10.475Z,97.4
2017-12-26T16:44:10.573Z,97.3
2017-12-26T16:49:10.430Z,96.9
2017-12-26T16:54:10.378Z,97.7
2017-12-26T16:59:10.397Z,97
2017-12-26T17:04:10.418Z,96.4
2017-12-26T17:09:10.546Z,96.2
2017-12-26T17:14:10.523Z,96.3
2017-12-26T17:19:10.562Z,96.3
2017-12-26T17:24:10.427Z,95.7
2017-12-26T17:29:10.500Z,96
2017-12-26T17:34:10.605Z,96
2017-12-26T17:39:10.597Z,96.2
2017-12-26T17:44:10.471Z,95.8
2017-12-26T17:49:10.544Z,95.6
2017-12-26T17:54:10.589Z,95.8
2017-12-26T17:59:10.416Z,95.5
2017-12-26T18:04:10.575Z,96
2017-12-26T18:09:10.588Z,96.3
2017-12-26T18:14:10.438Z,97
2017-12-26T18:19:10.547Z,97.5
2017-12-26T18:24:10.579Z,97.6
2017-12-26T18:29:10.459Z,97.2
2017-12-26T18:34:10.646Z,96.6
2017-12-26T18:39:10.813Z,97.4
2017-12-26T18:44:10.466Z,97.3
2017-12-26T18:49:11.312Z,96.8
2017-12-26T18:54:10.490Z,96.9
2017-12-26T18:59:10.601Z,97
2017-12-26T19:04:10.446Z,97
2017-12-26T19:09:10.503Z,96.2
2017-12-26T19:14:10.659Z,95.9
2017-12-26T19:19:10.568Z,96.6
2017-12-26T19:24:10.614Z,97.2
2017-12-26T19:29:10.488Z,98.2
2017-12-26T19:34:10.563Z,98.4
2017-12-26T19:39:10.621Z,98.3
2017-12-26T19:44:10.643Z,99.2
2017-12-26T19:49:10.581Z,100
2017-12-26T19:54:10.598Z,100
2017-12-26T19:59:10.672Z,100
2017-12-26T20:04:10.686Z,100
2017-12-26T20:09:10.572Z,100
2017-12-26T20:14:10.618Z,100
2017-12-26T20:19:10.667Z,99.9
2017-12-26T20:24:10.544Z,99.6
2017-12-26T20:29:10.645Z,99.8
2017-12-26T20:34:10.695Z,100
2017-12-26T20:39:10.792Z,100
2017-12-26T20:44:10.736Z,100
2017-12-26T20:49:10.787Z,100
2017-12-26T20:54:10.525Z,100
2017-12-26T20:59:10.538Z,100
2017-12-26T21:04:10.551Z,100
2017-12-26T21:09:11.367Z,100
2017-12-26T21:14:10.554Z,100
2017-12-26T21:19:10.810Z,100
2017-12-26T21:24:10.593Z,100
2017-12-26T21:29:10.563Z,100
2017-12-26T21:34:10.564Z,100
2017-12-26T21:39:12.244Z,100
2017-12-26T21:44:10.609Z,100
2017-12-26T21:49:20.533Z,100
2017-12-26T21:54:10.817Z,100
2017-12-26T21:59:10.565Z,100
2017-12-26T22:04:10.537Z,100
2017-12-26T22:09:10.540Z,100
2017-12-26T22:14:10.565Z,100
2017-12-26T22:19:10.599Z,100
2017-12-26T22:24:10.594Z,100
2017-12-26T22:29:10.669Z,100
2017-12-26T22:34:10.551Z,100
2017-12-26T22:39:10.572Z,100
2017-12-26T22:44:10.600Z,100
2017-12-26T22:49:10.583Z,100
2017-12-26T22:54:10.576Z,100
2017-12-26T22:59:10.583Z,100
2017-12-26T23:04:10.587Z,100
2017-12-26T23:09:10.607Z,100
2017-12-26T23:14:10.597Z,100
2017-12-26T23:19:10.660Z,100
2017-12-26T23:24:10.600Z,100
2017-12-26T23:29:10.638Z,100
2017-12-26T23:34:10.716Z,100
2017-12-26T23:39:10.591Z,100
2017-12-26T23:44:10.619Z,100
2017-12-26T23:49:11.270Z,100
2017-12-26T23:54:10.585Z,100
2017-12-26T23:59:10.639Z,100
